Time;durP1;ratioP1;P1;durP2;ratioP2;P2;SDS_P1;SDS_P2;PMS_P1;PMS_P2;Temp;Humidity;BMP_temperature;BMP_pressure;BME280_temperature;BME280_humidity;BME280_pressure;Samples;Min_cycle;Max_cycle;Signal;HPM_P1;HPM_P2
2023/11/26 00:02:15;;;;;;;24.48;11.55;;;;;;;-1.37;63.85;98759.88;4956845;28;20073;-68
2023/11/26 00:04:41;;;;;;;28.48;12.65;;;;;;;-1.63;62.55;98743.09;4973902;28;20060;-69
2023/11/26 00:07:08;;;;;;;27.10;12.02;;;;;;;-1.59;63.31;98760.22;4955002;28;20042;-69
2023/11/26 00:09:34;;;;;;;26.20;12.15;;;;;;;-1.78;63.51;98706.22;4982876;28;20042;-69
2023/11/26 00:12:00;;;;;;;26.15;11.77;;;;;;;-1.61;63.48;98724.44;4975871;28;20045;-68
2023/11/26 00:14:28;;;;;;;27.42;12.25;;;;;;;-1.53;63.52;98724.59;4977846;28;20047;-68
2023/11/26 00:16:54;;;;;;;30.35;12.50;;;;;;;-1.47;63.34;98713.69;4941751;28;20047;-68
2023/11/26 00:19:20;;;;;;;25.65;12.13;;;;;;;-1.63;63.50;98664.00;4973619;28;20408;-69
2023/11/26 00:21:49;;;;;;;30.55;12.63;;;;;;;-1.16;62.99;98739.88;4957903;28;20082;-67
2023/11/26 00:24:17;;;;;;;27.15;13.13;;;;;;;-1.37;62.62;98711.38;4956108;28;20142;-69
2023/11/26 00:26:45;;;;;;;26.85;12.45;;;;;;;-1.16;63.50;98750.09;4973781;28;20050;-66
2023/11/26 00:29:11;;;;;;;28.20;13.38;;;;;;;-1.09;62.66;98747.69;4977468;28;20051;-65
2023/11/26 00:31:37;;;;;;;27.15;11.93;;;;;;;-1.26;63.65;98697.97;4971941;28;20038;-67
2023/11/26 00:34:07;;;;;;;30.05;12.43;;;;;;;-1.02;62.82;98740.16;4975537;28;20035;-66
2023/11/26 00:36:33;;;;;;;27.25;12.50;;;;;;;-1.17;62.44;98713.50;4973665;28;20053;-68
2023/11/26 00:38:59;;;;;;;28.98;13.13;;;;;;;-0.93;62.52;98742.91;4974600;28;20042;-67
2023/11/26 00:41:25;;;;;;;29.63;12.95;;;;;;;-1.22;62.86;98705.75;4978476;28;20158;-67
2023/11/26 00:43:54;;;;;;;26.08;11.90;;;;;;;-0.96;63.12;98753.06;4976726;28;20126;-66
2023/11/26 00:46:20;;;;;;;24.80;12.57;;;;;;;-1.17;62.41;98710.06;4972371;28;20057;-67
2023/11/26 00:48:50;;;;;;;30.60;14.00;;;;;;;-1.27;62.74;98709.00;4953503;28;20110;-67
2023/11/26 00:51:21;;;;;;;29.35;12.98;;;;;;;-1.10;63.04;98745.97;4960839;28;20765;-66
2023/11/26 00:53:50;;;;;;;26.90;12.85;;;;;;;-1.20;63.15;98723.63;4961797;28;20039;-67
2023/11/26 00:56:16;;;;;;;28.20;13.93;;;;;;;-1.03;62.85;98743.53;4972930;28;20034;-65
2023/11/26 00:58:47;;;;;;;26.75;12.30;;;;;;;-1.18;62.66;98700.66;4960723;28;20047;-67
2023/11/26 01:01:14;;;;;;;27.10;12.60;;;;;;;-1.70;62.14;98640.06;4964238;28;20039;-65
2023/11/26 01:03:41;;;;;;;26.27;12.25;;;;;;;-1.13;61.84;98739.94;4973265;28;20129;-68
2023/11/26 01:06:07;;;;;;;28.83;12.60;;;;;;;-1.59;62.55;98712.56;4974716;28;20055;-66
2023/11/26 01:08:33;;;;;;;29.65;13.57;;;;;;;-1.42;62.74;98742.72;4962580;28;20042;-65
2023/11/26 01:11:04;;;;;;;29.77;13.95;;;;;;;-1.21;62.81;98748.28;4974359;28;20047;-68
2023/11/26 01:13:30;;;;;;;29.88;14.25;;;;;;;-1.16;62.68;98755.19;4961297;28;20047;-67
2023/11/26 01:15:59;;;;;;;30.55;13.90;;;;;;;-1.45;61.63;98748.63;4958694;28;20046;-65
2023/11/26 01:18:26;;;;;;;29.27;13.40;;;;;;;-1.83;61.57;98721.38;4971843;28;20046;-65
2023/11/26 01:20:52;;;;;;;30.20;12.88;;;;;;;-1.67;62.47;98771.09;4938639;28;20455;-65
2023/11/26 01:23:18;;;;;;;33.05;13.85;;;;;;;-1.53;62.97;98773.97;4977096;28;20043;-65
2023/11/26 01:25:44;;;;;;;28.23;11.77;;;;;;;-1.53;63.54;98748.44;4951524;28;20047;-66
2023/11/26 01:28:11;;;;;;;30.55;13.50;;;;;;;-1.31;62.13;98788.91;4972986;28;20047;-67
2023/11/26 01:30:37;;;;;;;26.83;13.43;;;;;;;-1.53;62.55;98762.88;4962131;28;20055;-66
2023/11/26 01:33:03;;;;;;;28.67;13.23;;;;;;;-1.46;62.29;98789.44;4956982;28;20117;-66
2023/11/26 01:35:29;;;;;;;27.23;13.23;;;;;;;-1.68;61.79;98763.41;4957638;28;20046;-65
2023/11/26 01:37:55;;;;;;;26.60;12.82;;;;;;;-1.71;63.06;98787.13;4955700;28;20042;-66
2023/11/26 01:40:21;;;;;;;30.63;12.55;;;;;;;-1.70;63.45;98770.16;4954279;28;20046;-66
2023/11/26 01:42:47;;;;;;;27.17;12.38;;;;;;;-1.67;63.00;98778.75;4959922;28;20042;-66
2023/11/26 01:45:13;;;;;;;29.25;13.45;;;;;;;-1.56;63.17;98796.00;4973513;28;20054;-66
2023/11/26 01:47:40;;;;;;;28.58;13.38;;;;;;;-1.75;62.31;98774.28;4959965;28;20110;-66
2023/11/26 01:50:09;;;;;;;29.65;12.98;;;;;;;-1.87;62.46;98805.44;4962493;28;20042;-66
2023/11/26 01:52:36;;;;;;;25.48;12.73;;;;;;;-2.64;62.83;98703.22;4943554;28;20536;-66
2023/11/26 01:55:05;;;;;;;26.23;12.23;;;;;;;-2.27;62.51;98782.34;4964377;28;20497;-66
2023/11/26 01:57:32;;;;;;;30.15;14.10;;;;;;;-2.73;63.72;98716.59;4980250;28;20058;-65
2023/11/26 01:59:59;;;;;;;30.80;14.38;;;;;;;-2.74;63.19;98712.31;4956909;28;20489;-68
2023/11/26 02:02:25;;;;;;;28.67;13.25;;;;;;;-2.13;63.27;98803.09;4954748;28;20046;-68
2023/11/26 02:04:51;;;;;;;30.67;13.50;;;;;;;-2.21;63.81;98779.94;4975055;28;20117;-67
2023/11/26 02:07:21;;;;;;;32.85;14.32;;;;;;;-1.88;63.54;98804.59;4977603;28;20043;-68
2023/11/26 02:09:53;;;;;;;36.20;16.35;;;;;;;-2.05;64.28;98759.94;4958897;28;20061;-66
2023/11/26 02:12:23;;;;;;;41.30;15.93;;;;;;;-1.69;64.59;98779.53;4954503;28;20066;-67
2023/11/26 02:14:49;;;;;;;43.47;17.10;;;;;;;-1.52;63.71;98810.53;4971627;28;20114;-66
2023/11/26 02:17:15;;;;;;;35.58;15.88;;;;;;;-1.48;64.73;98803.84;4970755;28;20039;-67
2023/11/26 02:19:44;;;;;;;43.33;15.77;;;;;;;-1.45;63.98;98809.03;4969509;28;20047;-66
2023/11/26 02:22:11;;;;;;;37.63;15.80;;;;;;;-1.44;64.89;98791.19;4945060;28;20410;-66
2023/11/26 02:24:47;;;;;;;33.08;14.85;;;;;;;-1.52;63.13;98803.75;4971100;28;20113;-67
2023/11/26 02:27:14;;;;;;;32.58;15.38;;;;;;;-1.71;63.86;98807.56;4962470;28;20057;-67
2023/11/26 02:29:41;;;;;;;33.20;14.45;;;;;;;-1.75;64.29;98799.78;4956826;28;20066;-65
2023/11/26 02:32:10;;;;;;;31.83;13.57;;;;;;;-1.88;63.63;98788.41;4945914;28;20062;-67
2023/11/26 02:34:37;;;;;;;29.42;13.63;;;;;;;-2.27;64.32;98727.13;4977049;28;20035;-67
2023/11/26 02:37:04;;;;;;;27.33;13.00;;;;;;;-1.82;64.77;98786.03;4959909;28;20038;-66
2023/11/26 02:39:30;;;;;;;30.95;13.18;;;;;;;-1.56;64.94;98811.31;4958563;28;20097;-67
2023/11/26 02:41:58;;;;;;;28.95;12.60;;;;;;;-1.90;62.92;98769.66;4959921;28;20043;-69
2023/11/26 02:44:25;;;;;;;30.20;13.23;;;;;;;-1.82;63.57;98796.25;4954135;28;20031;-67
2023/11/26 02:46:52;;;;;;;27.10;13.35;;;;;;;-1.79;64.96;98792.88;4957804;28;20161;-68
2023/11/26 02:49:19;;;;;;;28.63;14.10;;;;;;;-1.66;64.33;98805.13;4970374;28;20166;-67
2023/11/26 02:51:45;;;;;;;31.13;14.30;;;;;;;-1.59;64.58;98804.44;4956126;28;20045;-66
2023/11/26 02:54:11;;;;;;;33.85;15.07;;;;;;;-1.88;64.12;98775.66;4967207;28;20054;-65
2023/11/26 02:56:42;;;;;;;28.40;14.25;;;;;;;-1.93;63.90;98808.72;4961387;28;20042;-67
2023/11/26 02:59:10;;;;;;;28.33;14.40;;;;;;;-2.09;64.90;98781.97;4961025;28;20073;-66
2023/11/26 03:01:39;;;;;;;31.13;14.32;;;;;;;-2.13;64.18;98791.22;4952093;28;20397;-66
2023/11/26 03:04:09;;;;;;;35.80;16.27;;;;;;;-1.93;64.89;98782.34;4973714;28;20042;-66
2023/11/26 03:06:36;;;;;;;29.73;15.13;;;;;;;-1.59;64.90;98796.78;4955112;28;20054;-64
2023/11/26 03:09:29;;;;;;;32.42;15.20;;;;;;;-1.33;64.99;98795.69;4955371;28;20059;-66
2023/11/26 03:14:32;;;;;;;31.13;14.43;;;;;;;-1.53;64.33;98776.53;4971137;28;20043;-69
2023/11/26 03:16:58;;;;;;;33.13;15.13;;;;;;;-1.50;64.92;98806.34;4957251;28;20053;-67
2023/11/26 03:19:24;;;;;;;30.63;14.52;;;;;;;-1.26;65.03;98813.72;4952286;28;20098;-69
2023/11/26 03:21:53;;;;;;;26.45;12.57;;;;;;;-1.37;63.78;98803.28;4965301;28;20065;-67
2023/11/26 03:24:20;;;;;;;27.75;12.93;;;;;;;-1.72;63.68;98785.41;4977955;28;20057;-70
2023/11/26 03:26:49;;;;;;;29.30;13.18;;;;;;;-1.67;64.28;98805.97;4972438;28;20043;-68
2023/11/26 03:29:15;;;;;;;28.27;13.63;;;;;;;-1.62;64.60;98814.56;4972000;28;20065;-69
2023/11/26 03:31:43;;;;;;;29.67;13.65;;;;;;;-1.76;64.80;98772.56;4955353;28;20113;-69
2023/11/26 03:34:09;;;;;;;29.10;13.05;;;;;;;-2.19;64.20;98727.31;4941732;28;20050;-67
2023/11/26 03:36:37;;;;;;;31.13;13.63;;;;;;;-2.25;63.99;98742.47;4955335;28;20046;-71
2023/11/26 03:39:06;;;;;;;31.25;12.85;;;;;;;-2.44;65.15;98703.75;4959926;28;20066;-69
2023/11/26 03:41:33;;;;;;;29.08;12.88;;;;;;;-1.75;64.64;98818.50;4971439;28;20118;-67
2023/11/26 03:43:59;;;;;;;29.02;13.07;;;;;;;-1.90;64.46;98821.56;4948718;28;20058;-69
2023/11/26 03:46:26;;;;;;;31.02;13.65;;;;;;;-2.16;64.78;98783.50;4955335;28;20042;-67
2023/11/26 03:48:56;;;;;;;28.02;12.63;;;;;;;-2.14;64.08;98807.34;4943716;28;20039;-67
2023/11/26 03:51:28;;;;;;;27.30;12.23;;;;;;;-2.26;65.21;98804.44;4959654;28;20143;-68
2023/11/26 03:53:57;;;;;;;26.95;12.35;;;;;;;-2.44;64.78;98772.56;4939478;28;20040;-69
2023/11/26 03:56:24;;;;;;;27.27;12.05;;;;;;;-2.32;64.61;98797.50;4958496;28;20046;-68
2023/11/26 03:58:50;;;;;;;28.25;12.65;;;;;;;-2.41;64.79;98797.25;4943540;28;20039;-70
2023/11/26 04:01:16;;;;;;;33.17;12.95;;;;;;;-2.27;66.29;98803.59;4968332;28;20046;-70
2023/11/26 04:03:43;;;;;;;26.42;12.43;;;;;;;-2.32;66.41;98750.78;4958534;28;20066;-69
2023/11/26 04:06:09;;;;;;;27.42;12.88;;;;;;;-1.90;65.63;98796.06;4970614;28;20169;-68
2023/11/26 04:08:36;;;;;;;25.15;12.25;;;;;;;-2.68;65.24;98670.00;4960809;28;20039;-71
2023/11/26 04:11:07;;;;;;;25.77;11.87;;;;;;;-1.93;66.28;98800.19;4963082;28;20035;-68
2023/11/26 04:13:34;;;;;;;24.40;12.07;;;;;;;-1.86;66.11;98800.38;4958035;28;20039;-68
2023/11/26 04:16:01;;;;;;;25.88;11.57;;;;;;;-1.90;65.88;98795.16;4973817;28;20069;-69
2023/11/26 04:18:27;;;;;;;28.00;12.80;;;;;;;-1.91;66.00;98771.38;4960327;28;20129;-69
2023/11/26 04:20:55;;;;;;;28.50;12.80;;;;;;;-2.21;64.54;98769.75;4974450;28;20047;-68
2023/11/26 04:23:22;;;;;;;26.40;12.30;;;;;;;-2.36;64.37;98797.41;4971642;28;20046;-68
2023/11/26 04:25:54;;;;;;;24.30;12.73;;;;;;;-2.29;65.44;98820.53;4943055;28;20074;-69
2023/11/26 04:28:20;;;;;;;31.93;14.37;;;;;;;-2.24;65.99;98817.25;4958366;28;20059;-69
2023/11/26 04:30:46;;;;;;;27.85;12.10;;;;;;;-2.02;66.12;98831.41;4969600;28;20522;-70
2023/11/26 04:33:13;;;;;;;26.13;12.43;;;;;;;-1.87;65.37;98833.50;4955917;28;20102;-69
2023/11/26 04:35:39;;;;;;;25.92;12.52;;;;;;;-2.24;64.59;98812.16;4974296;28;20070;-68
2023/11/26 04:38:05;;;;;;;27.45;13.57;;;;;;;-2.77;65.17;98739.38;4976817;28;20039;-68
2023/11/26 04:40:31;;;;;;;29.63;12.73;;;;;;;-2.84;64.68;98746.00;4981553;28;20049;-69
2023/11/26 04:43:01;;;;;;;29.13;12.88;;;;;;;-2.73;65.41;98780.25;4975116;28;20035;-69
2023/11/26 04:45:28;;;;;;;28.48;13.02;;;;;;;-2.59;65.73;98807.81;4974445;28;20043;-69
2023/11/26 04:47:54;;;;;;;24.63;12.00;;;;;;;-2.66;65.70;98783.88;4947010;28;20046;-69
2023/11/26 04:50:24;;;;;;;27.83;12.35;;;;;;;-3.12;65.91;98693.47;4958610;28;20043;-69
2023/11/26 04:52:51;;;;;;;30.13;12.43;;;;;;;-2.41;65.40;98817.63;4965412;28;20066;-69
2023/11/26 04:55:19;;;;;;;26.67;12.02;;;;;;;-2.49;66.48;98804.69;4974300;28;20073;-68
2023/11/26 04:57:49;;;;;;;30.80;12.23;;;;;;;-2.65;65.09;98815.28;4975645;28;20038;-69
2023/11/26 05:00:16;;;;;;;26.52;12.18;;;;;;;-2.79;66.29;98790.28;4976180;28;20043;-67
2023/11/26 05:02:45;;;;;;;30.98;12.60;;;;;;;-2.81;65.97;98775.78;4977204;28;20054;-69
2023/11/26 05:05:11;;;;;;;27.77;12.15;;;;;;;-2.75;66.85;98792.09;4957796;28;20139;-69
2023/11/26 05:07:38;;;;;;;28.13;11.50;;;;;;;-2.52;66.02;98819.88;4958799;28;20067;-68
2023/11/26 05:10:07;;;;;;;29.27;11.60;;;;;;;-3.09;66.00;98750.41;4960700;28;20064;-69
2023/11/26 05:12:34;;;;;;;25.20;11.55;;;;;;;-2.77;65.32;98783.56;4964563;28;20043;-71
2023/11/26 05:15:01;;;;;;;29.98;12.52;;;;;;;-2.89;65.78;98790.84;4957339;28;20082;-69
2023/11/26 05:17:29;;;;;;;28.30;11.57;;;;;;;-2.74;66.51;98796.34;4955772;28;20039;-70
2023/11/26 05:19:55;;;;;;;27.30;11.73;;;;;;;-2.52;66.86;98796.97;4955855;28;20066;-68
2023/11/26 05:22:22;;;;;;;26.63;11.82;;;;;;;-2.30;67.06;98805.19;4964334;28;20039;-68
2023/11/26 05:24:49;;;;;;;26.83;12.05;;;;;;;-2.28;66.14;98795.91;4955313;28;20041;-69
2023/11/26 05:27:21;;;;;;;36.40;14.95;;;;;;;-2.04;66.81;98802.47;4974574;28;20560;-70
2023/11/26 05:30:06;;;;;;;43.60;18.00;;;;;;;-2.20;65.10;98768.06;4950662;29;20039;-68
2023/11/26 05:32:35;;;;;;;28.55;13.88;;;;;;;-2.94;64.41;98701.59;4954256;28;20048;-70
2023/11/26 05:35:12;;;;;;;25.50;11.23;;;;;;;-2.82;64.43;98774.94;4957667;28;20471;-70
2023/11/26 05:37:42;;;;;;;25.02;11.80;;;;;;;-3.25;65.15;98722.78;4939538;28;20045;-67
2023/11/26 05:40:12;;;;;;;27.65;12.45;;;;;;;-2.96;65.87;98778.75;4952247;28;20105;-69
2023/11/26 05:42:39;;;;;;;29.05;12.35;;;;;;;-2.97;66.10;98784.66;4948400;28;20050;-68
2023/11/26 05:45:08;;;;;;;26.63;12.45;;;;;;;-2.91;65.37;98795.03;4958790;28;20058;-68
2023/11/26 05:47:34;;;;;;;28.90;11.88;;;;;;;-3.23;65.30;98760.16;4926677;29;20042;-69
2023/11/26 05:50:01;;;;;;;28.70;12.82;;;;;;;-3.13;66.30;98780.81;4954560;28;20043;-70
2023/11/26 05:52:27;;;;;;;26.67;11.48;;;;;;;-2.93;66.53;98797.53;4954302;28;20137;-68
2023/11/26 05:54:53;;;;;;;25.58;12.27;;;;;;;-3.15;65.81;98760.38;4956268;28;20130;-68
2023/11/26 05:57:19;;;;;;;27.38;12.90;;;;;;;-2.91;66.57;98770.44;4946569;28;20039;-68
2023/11/26 05:59:46;;;;;;;27.45;12.38;;;;;;;-2.42;66.65;98800.63;4937753;28;20110;-67
2023/11/26 06:02:15;;;;;;;24.83;11.35;;;;;;;-2.37;66.96;98750.66;4940479;28;20070;-68
2023/11/26 06:04:44;;;;;;;31.58;13.57;;;;;;;-1.91;66.64;98790.88;4954024;28;20051;-69
2023/11/26 06:07:10;;;;;;;32.28;14.05;;;;;;;-1.83;65.64;98797.91;4947413;28;20054;-66
2023/11/26 06:09:37;;;;;;;30.33;14.13;;;;;;;-1.95;65.43;98779.75;4957802;28;20098;-68
2023/11/26 06:12:04;;;;;;;28.88;14.90;;;;;;;-1.90;66.40;98760.34;4954860;28;20146;-68
2023/11/26 06:14:30;;;;;;;37.75;16.95;;;;;;;-1.80;66.27;98760.56;4970861;28;20043;-70
2023/11/26 06:16:59;;;;;;;35.45;17.90;;;;;;;-1.97;65.69;98738.91;4962488;28;20093;-66
2023/11/26 06:19:30;;;;;;;34.10;17.67;;;;;;;-1.80;65.94;98727.38;4954785;28;20490;-68
2023/11/26 06:21:56;;;;;;;30.20;14.65;;;;;;;-1.44;65.54;98775.03;4965235;28;20158;-69
2023/11/26 06:24:23;;;;;;;28.73;13.77;;;;;;;-1.51;65.93;98758.69;4963132;28;20050;-70
2023/11/26 06:26:54;;;;;;;27.73;13.05;;;;;;;-1.37;65.47;98762.44;4946520;28;20035;-70
2023/11/26 06:29:20;;;;;;;32.00;15.27;;;;;;;-1.10;65.65;98785.97;4945293;29;20075;-70
2023/11/26 06:31:47;;;;;;;35.10;13.98;;;;;;;-1.11;65.40;98764.69;4940145;28;20047;-68
2023/11/26 06:34:15;;;;;;;30.92;15.85;;;;;;;-1.04;65.27;98770.78;4953087;28;20040;-68
2023/11/26 06:36:45;;;;;;;;;;;;;;;-0.89;64.61;98784.72;4970903;28;20062;-67
2023/11/26 06:39:12;;;;;;;28.25;12.57;;;;;;;-1.32;64.90;98708.06;4974773;28;19918;-69
2023/11/26 06:41:40;;;;;;;26.65;12.10;;;;;;;-0.88;64.71;98766.84;4956415;28;20039;-69
2023/11/26 06:44:26;;;;;;;25.98;11.95;;;;;;;-1.17;64.40;98692.19;4946243;28;20050;-68
2023/11/26 06:46:52;;;;;;;26.65;11.77;;;;;;;-0.85;64.55;98735.41;4954068;28;20050;-70
2023/11/26 06:49:38;;;;;;;23.05;11.63;;;;;;;-0.49;64.78;98767.63;4954246;28;20051;-77
2023/11/26 06:52:05;;;;;;;26.15;11.98;;;;;;;-0.78;64.53;98721.94;4952555;28;20039;-69
2023/11/26 06:54:31;;;;;;;26.30;12.52;;;;;;;-0.49;63.36;98777.84;4954802;28;20062;-70
2023/11/26 06:56:56;;;;;;;24.73;12.05;;;;;;;-0.78;64.20;98737.25;4970106;28;20035;-69
2023/11/26 06:59:23;;;;;;;26.58;11.82;;;;;;;-0.67;64.07;98756.22;4955227;28;20066;-73
2023/11/26 07:01:51;;;;;;;31.92;13.25;;;;;;;-0.47;64.36;98776.16;4954304;28;20141;-69
2023/11/26 07:04:17;;;;;;;27.25;12.85;;;;;;;-0.42;63.59;98779.69;4959900;28;20035;-73
2023/11/26 07:06:47;;;;;;;27.50;12.73;;;;;;;-0.29;63.28;98783.34;4964676;28;20109;-70
2023/11/26 07:09:15;;;;;;;22.83;11.98;;;;;;;-0.28;64.08;98772.28;4970239;28;20038;-68
2023/11/26 07:11:41;;;;;;;32.50;14.23;;;;;;;-0.35;63.44;98747.41;4972581;28;20189;-72
2023/11/26 07:14:16;;;;;;;29.48;13.13;;;;;;;-0.35;63.88;98726.97;4980294;28;20057;-71
2023/11/26 07:16:42;;;;;;;29.27;13.85;;;;;;;0.03;62.92;98777.91;4968510;28;20077;-71
2023/11/26 07:19:14;;;;;;;25.10;13.23;;;;;;;-0.20;63.06;98731.50;4964767;28;20053;-68
2023/11/26 07:21:43;;;;;;;;;;;;;;;0.20;63.19;98782.47;4980345;28;20058;-68
2023/11/26 07:24:22;;;;;;;28.73;13.68;;;;;;;0.29;63.07;98793.72;4965665;28;19973;-71
2023/11/26 07:26:57;;;;;;;27.08;12.75;;;;;;;0.01;62.31;98737.81;4969504;28;20512;-70
2023/11/26 07:29:23;;;;;;;25.80;12.93;;;;;;;0.29;63.08;98793.72;4976378;28;20097;-71
2023/11/26 07:31:49;;;;;;;28.02;14.38;;;;;;;0.34;62.27;98796.34;4975076;28;20070;-73
2023/11/26 07:34:18;;;;;;;29.17;13.75;;;;;;;0.05;62.96;98742.16;4976012;28;20035;-70
2023/11/26 07:36:52;;;;;;;30.92;14.50;;;;;;;0.11;62.99;98720.06;4959352;28;20043;-71
2023/11/26 07:39:38;;;;;;;26.95;13.10;;;;;;;0.54;61.87;98783.00;4977033;28;20046;-77
2023/11/26 07:42:05;;;;;;;28.92;13.80;;;;;;;0.62;62.67;98793.34;4961198;28;20069;-71
2023/11/26 07:44:31;;;;;;;31.60;13.88;;;;;;;0.14;61.73;98707.34;4958171;28;20031;-72
2023/11/26 07:47:25;;;;;;;30.85;13.85;;;;;;;0.48;61.87;98762.41;4974978;28;20046;-69
2023/11/26 07:49:51;;;;;;;27.20;13.63;;;;;;;0.77;62.44;98783.38;4936654;28;20039;-69
2023/11/26 07:52:18;;;;;;;26.58;13.27;;;;;;;0.80;61.87;98780.81;4969040;28;20046;-69
2023/11/26 07:54:48;;;;;;;28.08;13.10;;;;;;;0.69;60.86;98783.22;4974572;28;20046;-71
2023/11/26 07:57:16;;;;;;;28.48;14.40;;;;;;;0.69;61.69;98783.22;4973275;28;20110;-72
2023/11/26 07:59:45;;;;;;;30.13;14.27;;;;;;;0.67;61.60;98784.91;4969344;28;20042;-71
2023/11/26 08:02:11;;;;;;;28.13;13.35;;;;;;;0.54;61.43;98765.97;4969169;28;20042;-71
2023/11/26 08:04:38;;;;;;;25.70;13.10;;;;;;;0.40;61.34;98746.94;4974382;28;20054;-72
2023/11/26 08:07:05;;;;;;;27.25;14.25;;;;;;;0.29;60.80;98711.84;4980307;28;20414;-75
2023/11/26 08:09:34;;;;;;;29.52;13.32;;;;;;;0.73;61.58;98771.34;4978478;28;20070;-77
2023/11/26 08:12:02;;;;;;;26.70;13.95;;;;;;;0.79;60.83;98780.81;4985956;28;20030;-78
2023/11/26 08:14:28;;;;;;;24.92;12.25;;;;;;;0.67;61.13;98754.16;4970533;28;20070;-80
2023/11/26 08:16:57;;;;;;;27.95;13.00;;;;;;;0.74;60.92;98768.78;4964898;28;20575;-80
2023/11/26 08:19:25;;;;;;;26.02;12.18;;;;;;;0.65;61.00;98757.56;4976865;28;20031;-73
2023/11/26 08:21:55;;;;;;;27.33;12.60;;;;;;;0.66;60.35;98767.84;4981140;28;20557;-75
2023/11/26 08:24:29;;;;;;;26.08;13.27;;;;;;;0.53;61.13;98741.19;4970824;28;20039;-74
2023/11/26 08:26:56;;;;;;;29.63;14.50;;;;;;;0.78;60.84;98761.16;4960468;28;20117;-75
2023/11/26 08:29:23;;;;;;;27.77;14.85;;;;;;;0.79;60.64;98768.84;4962948;28;20043;-71
2023/11/26 08:31:50;;;;;;;26.00;14.07;;;;;;;0.83;60.85;98782.59;4980556;28;20102;-78
2023/11/26 08:34:17;;;;;;;28.23;13.52;;;;;;;0.77;61.12;98770.56;4933110;28;20047;-73
2023/11/26 08:36:44;;;;;;;28.27;12.40;;;;;;;0.74;60.13;98755.16;4980072;28;20066;-72
2023/11/26 08:39:27;;;;;;;24.88;12.48;;;;;;;0.49;60.32;98718.94;4979077;28;20053;-71
2023/11/26 08:41:57;;;;;;;22.23;11.55;;;;;;;0.89;60.67;98769.84;4967688;28;20038;-76
2023/11/26 08:44:27;;;;;;;25.95;11.57;;;;;;;0.93;60.09;98747.69;4944389;28;20050;-75
2023/11/26 08:47:02;;;;;;;27.70;12.52;;;;;;;0.68;60.27;98694.44;4985425;28;20039;-71
2023/11/26 08:49:30;;;;;;;25.60;12.20;;;;;;;0.98;59.76;98746.06;4980714;28;20049;-72
2023/11/26 08:51:56;;;;;;;26.83;12.85;;;;;;;1.00;60.23;98732.44;4983320;28;20045;-77
2023/11/26 08:54:22;;;;;;;24.05;12.23;;;;;;;1.25;60.71;98747.22;4983415;28;20042;-74
2023/11/26 08:56:52;;;;;;;23.77;12.27;;;;;;;1.35;60.29;98742.22;4966439;28;20054;-73
2023/11/26 08:59:20;;;;;;;26.00;11.38;;;;;;;1.29;60.00;98731.06;4951640;28;20043;-74
2023/11/26 09:01:52;;;;;;;25.63;12.48;;;;;;;0.99;60.12;98689.72;4968729;28;20113;-74
2023/11/26 09:04:18;;;;;;;22.85;12.40;;;;;;;0.75;59.74;98649.31;4982197;28;20047;-75
2023/11/26 09:06:46;;;;;;;27.63;12.73;;;;;;;0.99;59.59;98697.41;4978241;28;20047;-77
2023/11/26 09:09:12;;;;;;;22.85;11.68;;;;;;;1.22;59.79;98732.69;4991501;28;20053;-76
2023/11/26 09:11:38;;;;;;;23.83;11.45;;;;;;;1.09;59.04;98705.22;4966079;28;20046;-75
2023/11/26 09:14:04;;;;;;;27.33;12.00;;;;;;;1.05;59.72;98705.16;4962749;28;20035;-74
2023/11/26 09:16:36;;;;;;;24.73;11.68;;;;;;;0.78;59.53;98649.31;4980035;28;20493;-72
2023/11/26 09:19:05;;;;;;;;;;;;;;;0.78;59.66;98645.91;4970495;28;20049;-75
2023/11/26 09:21:49;;;;;;;23.55;11.27;;;;;;;1.02;59.94;98691.44;4971878;28;19929;-75
2023/11/26 09:24:24;;;;;;;23.23;11.63;;;;;;;0.82;59.51;98656.19;4969340;28;20454;-73
2023/11/26 09:26:53;;;;;;;23.77;11.82;;;;;;;0.69;58.80;98636.41;4980737;28;20106;-73
2023/11/26 09:29:20;;;;;;;26.30;12.13;;;;;;;0.80;59.11;98663.00;4983291;28;20043;-74
2023/11/26 09:31:46;;;;;;;27.67;13.18;;;;;;;0.95;59.33;98707.59;4966209;28;20505;-72
2023/11/26 09:34:25;;;;;;;24.35;11.48;;;;;;;0.54;59.38;98630.28;4965321;28;20022;-74
2023/11/26 09:36:53;;;;;;;29.75;13.90;;;;;;;0.99;59.62;98676.91;4982165;28;20042;-76
2023/11/26 09:39:22;;;;;;;25.75;12.63;;;;;;;1.27;59.22;98699.41;4961970;28;20050;-74
2023/11/26 09:44:46;;;;;;;26.63;14.25;;;;;;;1.31;59.56;98672.97;4991453;28;20542;-75
2023/11/26 09:47:18;;;;;;;26.15;12.85;;;;;;;1.03;59.11;98621.41;4978397;28;20448;-76
2023/11/26 09:49:49;;;;;;;25.55;12.80;;;;;;;1.06;58.65;98631.69;5004698;28;20646;-78
2023/11/26 09:52:28;;;;;;;24.15;13.00;;;;;;;1.22;59.24;98653.22;4959310;28;20202;-73
2023/11/26 09:54:56;;;;;;;28.00;13.38;;;;;;;1.60;59.03;98709.16;5005892;28;20088;-80
2023/11/26 09:57:22;;;;;;;30.38;14.18;;;;;;;1.38;59.19;98673.88;4989563;28;20038;-73
2023/11/26 09:59:53;;;;;;;28.30;14.10;;;;;;;1.47;58.17;98704.75;4995852;28;20038;-75
2023/11/26 10:02:20;;;;;;;26.48;13.68;;;;;;;1.35;58.82;98682.41;4993958;28;20097;-78
2023/11/26 10:04:53;;;;;;;31.35;14.40;;;;;;;1.41;59.49;98713.25;4978221;28;20041;-74
2023/11/26 10:07:36;;;;;;;26.23;13.05;;;;;;;1.38;59.17;98696.97;4994871;28;20041;-76
2023/11/26 10:10:18;;;;;;;27.77;14.07;;;;;;;1.33;58.96;98681.53;5009668;28;20096;-74
2023/11/26 10:12:59;;;;;;;27.92;13.38;;;;;;;1.10;58.88;98643.72;4987460;28;20054;-73
2023/11/26 10:15:36;;;;;;;30.75;14.80;;;;;;;1.47;58.35;98689.38;4989813;28;20037;-73
2023/11/26 10:18:12;;;;;;;27.33;14.13;;;;;;;1.02;58.97;98622.25;4991608;28;20043;-72
2023/11/26 10:20:53;;;;;;;28.30;13.88;;;;;;;1.33;58.66;98673.84;5008266;28;20045;-75
2023/11/26 10:23:42;;;;;;;30.13;13.35;;;;;;;0.80;57.96;98616.06;4975195;28;20073;-70
2023/11/26 10:26:33;;;;;;;29.25;13.07;;;;;;;1.15;58.23;98674.50;4989111;28;20046;-70
2023/11/26 10:29:09;;;;;;;28.08;14.10;;;;;;;1.27;58.87;98663.53;4974692;28;20110;-71
2023/11/26 10:32:20;;;;;;;27.50;12.98;;;;;;;1.43;58.62;98685.94;5004052;28;20046;-74
2023/11/26 10:34:57;;;;;;;28.60;13.45;;;;;;;1.06;59.16;98616.34;4973963;28;20523;-73
2023/11/26 10:37:28;;;;;;;28.98;14.38;;;;;;;0.99;58.59;98589.78;4992689;28;20057;-71
2023/11/26 10:40:00;;;;;;;28.75;14.40;;;;;;;0.68;58.12;98553.59;4991182;28;20038;-72
2023/11/26 10:42:32;;;;;;;28.88;14.90;;;;;;;1.22;58.85;98650.66;4951869;28;20075;-72
2023/11/26 10:45:00;;;;;;;30.02;13.70;;;;;;;0.79;58.54;98581.88;5042383;22;20057;-70
2023/11/26 10:47:43;;;;;;;30.63;14.73;;;;;;;0.53;57.75;98551.75;5019373;28;20048;-71
2023/11/26 10:50:17;;;;;;;26.98;13.73;;;;;;;0.85;58.76;98589.63;4982918;28;20520;-72
2023/11/26 10:52:58;;;;;;;30.88;14.60;;;;;;;0.50;57.65;98579.00;5013593;28;20333;-71
2023/11/26 10:55:32;;;;;;;30.30;14.85;;;;;;;0.92;58.27;98646.06;5018686;28;20154;-71
2023/11/26 10:58:28;;;;;;;29.75;14.13;;;;;;;0.54;58.50;98584.19;5018541;28;20528;-71
2023/11/26 11:00:59;;;;;;;31.17;13.43;;;;;;;0.75;58.92;98613.44;5018845;28;20060;-71
2023/11/26 11:03:28;;;;;;;30.73;15.23;;;;;;;1.06;59.48;98654.75;5008315;28;20034;-71
2023/11/26 11:05:57;;;;;;;31.58;14.80;;;;;;;0.92;58.94;98634.09;5015142;28;20034;-72
2023/11/26 11:08:24;;;;;;;30.65;15.13;;;;;;;0.92;58.85;98621.31;5018221;28;20045;-71
2023/11/26 11:11:21;;;;;;;28.15;13.90;;;;;;;1.05;58.80;98640.22;5002596;28;20289;-71
2023/11/26 11:13:49;;;;;;;31.05;15.02;;;;;;;0.99;59.19;98632.50;5019045;28;20050;-74
2023/11/26 11:16:15;;;;;;;29.48;13.85;;;;;;;0.85;58.62;98610.13;5019970;28;20037;-71
2023/11/26 11:18:48;;;;;;;29.10;15.13;;;;;;;0.69;58.99;98598.84;5018104;28;20294;-76
2023/11/26 11:21:18;;;;;;;29.30;14.43;;;;;;;0.79;58.90;98627.13;4986523;28;20048;-70
2023/11/26 11:26:28;;;;;;;30.75;13.98;;;;;;;-0.32;59.08;98453.47;4967989;28;20146;-75
2023/11/26 11:29:06;;;;;;;;;;;;;;;;;;;;;
2023/11/26 11:31:48;;;;;;;32.13;14.48;;;;;;;0.70;58.11;98625.31;4963910;28;20584;-73
2023/11/26 11:34:14;;;;;;;30.30;14.25;;;;;;;0.77;58.92;98632.25;4965490;28;20038;-72
2023/11/26 11:36:49;;;;;;;27.90;13.32;;;;;;;0.63;59.10;98603.03;4985357;28;20398;-70
2023/11/26 11:39:21;;;;;;;29.52;14.45;;;;;;;0.60;59.17;98606.44;4986831;28;20050;-70
2023/11/26 11:42:05;;;;;;;28.80;14.18;;;;;;;0.57;58.39;98620.03;4986098;28;20039;-73